Time;durP1;ratioP1;P1;durP2;ratioP2;P2;SDS_P1;SDS_P2;PMS_P1;PMS_P2;Temp;Humidity;BMP_temperature;BMP_pressure;BME280_temperature;BME280_humidity;BME280_pressure;Samples;Min_cycle;Max_cycle;Signal;HPM_P1;HPM_P2
2023/01/03 00:01:55;;;;;;;20.88;12.95;;;;;;;;;;5097047;27;20638;-66
2023/01/03 00:04:22;;;;;;;24.98;13.95;;;;;;;;;;5094985;28;20310;-65
2023/01/03 00:06:49;;;;;;;19.15;12.20;;;;;;;;;;5090982;28;20047;-66
2023/01/03 00:09:17;;;;;;;21.55;13.18;;;;;;;;;;5078225;28;20082;-67
2023/01/03 00:14:31;;;;;;;26.10;12.98;;;;;;;;;;5088779;28;20048;-66
2023/01/03 00:16:59;;;;;;;22.00;12.75;;;;;;;;;;5087993;28;20050;-65
2023/01/03 00:19:26;;;;;;;20.30;12.15;;;;;;;;;;5086961;28;20058;-65
2023/01/03 00:21:53;;;;;;;19.30;12.43;;;;;;;;;;5090461;28;20040;-66
2023/01/03 00:24:19;;;;;;;21.95;12.13;;;;;;;;;;5085279;28;20055;-67
2023/01/03 00:26:46;;;;;;;21.88;13.15;;;;;;;;;;5091170;28;20044;-65
2023/01/03 00:29:12;;;;;;;21.90;12.93;;;;;;;;;;5095462;28;20056;-65
2023/01/03 00:31:39;;;;;;;24.42;13.40;;;;;;;;;;5081220;28;20059;-65
2023/01/03 00:34:06;;;;;;;20.38;12.82;;;;;;;;;;5108772;28;20051;-67
2023/01/03 00:36:33;;;;;;;24.65;13.73;;;;;;;;;;5108134;28;20142;-67
2023/01/03 00:38:59;;;;;;;18.70;11.57;;;;;;;;;;5088966;28;20040;-66
2023/01/03 00:41:25;;;;;;;22.33;13.35;;;;;;;;;;5103098;28;20083;-65
2023/01/03 00:43:52;;;;;;;19.48;12.52;;;;;;;;;;5082017;27;20552;-68
2023/01/03 00:46:19;;;;;;;21.83;12.45;;;;;;;;;;5092727;28;20064;-66
2023/01/03 00:48:46;;;;;;;19.00;12.10;;;;;;;;;;5083737;28;20059;-66
2023/01/03 00:51:14;;;;;;;19.67;13.20;;;;;;;;;;5085088;28;20060;-64
2023/01/03 00:53:41;;;;;;;24.57;13.47;;;;;;;;;;5089217;28;20043;-64
2023/01/03 00:56:08;;;;;;;24.42;13.27;;;;;;;;;;5101452;28;20492;-63
2023/01/03 00:58:35;;;;;;;21.50;13.07;;;;;;;;;;5092052;28;20047;-66
2023/01/03 01:01:05;;;;;;;19.33;12.73;;;;;;;;;;5095029;28;20054;-66
2023/01/03 01:03:32;;;;;;;20.85;12.85;;;;;;;;;;5092196;28;20048;-66
2023/01/03 01:05:59;;;;;;;22.10;14.48;;;;;;;;;;5085182;28;20048;-66
2023/01/03 01:08:25;;;;;;;23.00;14.10;;;;;;;;;;5086004;28;20075;-66
2023/01/03 01:11:00;;;;;;;19.60;13.95;;;;;;;;;;5087814;28;20059;-64
2023/01/03 01:13:28;;;;;;;21.23;14.00;;;;;;;;;;5096944;28;20048;-65
2023/01/03 01:15:55;;;;;;;20.88;14.32;;;;;;;;;;5092079;28;20046;-64
2023/01/03 01:18:21;;;;;;;22.92;14.57;;;;;;;;;;5083870;28;20089;-64
2023/01/03 01:20:47;;;;;;;24.85;15.45;;;;;;;;;;5084076;28;20389;-65
2023/01/03 01:23:14;;;;;;;24.20;14.75;;;;;;;;;;5072042;28;20044;-64
2023/01/03 01:25:40;;;;;;;25.17;15.88;;;;;;;;;;5098847;27;20048;-64
2023/01/03 01:28:06;;;;;;;26.00;14.82;;;;;;;;;;5088528;28;20174;-66
2023/01/03 01:30:32;;;;;;;22.60;14.55;;;;;;;;;;5094054;28;20044;-64
2023/01/03 01:32:59;;;;;;;21.92;14.65;;;;;;;;;;5091628;28;20043;-64
2023/01/03 01:35:25;;;;;;;23.50;15.45;;;;;;;;;;5084625;28;20055;-64
2023/01/03 01:37:51;;;;;;;26.55;16.33;;;;;;;;;;5094178;28;20055;-64
2023/01/03 01:40:18;;;;;;;25.08;15.07;;;;;;;;;;5089131;28;20055;-65
2023/01/03 01:45:29;;;;;;;22.50;14.82;;;;;;;;;;5088438;28;20048;-64
2023/01/03 01:47:58;;;;;;;23.13;14.70;;;;;;;;;;5089630;28;20044;-64
2023/01/03 01:50:51;;;;;;;21.23;13.50;;;;;;;;;;5089680;28;20874;-63
2023/01/03 01:53:20;;;;;;;24.08;15.00;;;;;;;;;;5092031;28;20066;-65
2023/01/03 01:55:46;;;;;;;21.80;14.18;;;;;;;;;;5092968;28;20051;-66
2023/01/03 01:58:13;;;;;;;19.77;13.43;;;;;;;;;;5083936;28;20486;-64
2023/01/03 02:00:40;;;;;;;22.75;13.95;;;;;;;;;;5092401;28;20123;-69
2023/01/03 02:03:07;;;;;;;22.67;14.93;;;;;;;;;;5084616;28;20500;-69
2023/01/03 02:05:34;;;;;;;21.05;14.38;;;;;;;;;;5094228;28;20438;-69
2023/01/03 02:08:01;;;;;;;22.30;14.57;;;;;;;;;;5094027;28;20488;-69
2023/01/03 02:10:33;;;;;;;21.10;12.85;;;;;;;;;;5088452;28;20062;-68
2023/01/03 02:13:04;;;;;;;22.30;13.65;;;;;;;;;;5093150;28;20093;-68
2023/01/03 02:15:39;;;;;;;18.88;13.40;;;;;;;;;;5080684;28;20489;-68
2023/01/03 02:18:18;;;;;;;21.48;14.27;;;;;;;;;;5088727;28;20084;-68
2023/01/03 02:20:44;;;;;;;;;;;;;;;;;;5084595;28;20051;-68
2023/01/03 02:23:20;;;;;;;23.50;14.57;;;;;;;;;;5075724;28;20392;-68
2023/01/03 02:25:55;;;;;;;22.08;13.80;;;;;;;;;;5084957;28;20058;-68
2023/01/03 02:28:25;;;;;;;24.75;15.27;;;;;;;;;;5100470;28;20123;-68
2023/01/03 02:31:03;;;;;;;20.70;14.13;;;;;;;;;;5087088;28;20040;-69
2023/01/03 02:33:30;;;;;;;;;;;;;;;;;;5082012;28;20531;-69
2023/01/03 02:36:15;;;;;;;23.08;15.38;;;;;;;;;;5097661;28;19920;-68
2023/01/03 02:38:47;;;;;;;23.00;13.75;;;;;;;;;;5087582;28;20522;-68
2023/01/03 02:41:21;;;;;;;24.52;14.63;;;;;;;;;;5096132;28;20044;-69
2023/01/03 02:43:52;;;;;;;22.40;14.27;;;;;;;;;;5084398;28;20048;-68
2023/01/03 02:46:24;;;;;;;22.63;14.88;;;;;;;;;;5086360;28;20050;-68
2023/01/03 02:48:55;;;;;;;24.67;15.30;;;;;;;;;;5085103;28;20075;-68
2023/01/03 02:51:27;;;;;;;23.63;14.60;;;;;;;;;;5092819;28;20036;-68
2023/01/03 02:53:55;;;;;;;24.05;15.77;;;;;;;;;;5094247;28;20477;-68
2023/01/03 02:56:43;;;;;;;24.63;15.90;;;;;;;;;;5085707;28;20044;-68
2023/01/03 02:59:13;;;;;;;24.77;16.55;;;;;;;;;;5086539;28;20063;-69
2023/01/03 03:01:43;;;;;;;26.05;16.05;;;;;;;;;;5078529;28;20048;-68
2023/01/03 03:04:11;;;;;;;25.95;17.35;;;;;;;;;;5091939;28;20047;-68
2023/01/03 03:06:37;;;;;;;27.20;17.05;;;;;;;;;;5088450;28;20171;-68
2023/01/03 03:09:04;;;;;;;27.20;16.90;;;;;;;;;;5095328;28;20059;-69
2023/01/03 03:14:27;;;;;;;28.25;18.08;;;;;;;;;;5085295;28;20052;-68
2023/01/03 03:16:58;;;;;;;37.53;20.45;;;;;;;;;;5091274;28;20051;-68
2023/01/03 03:25:21;;;;;;;35.72;19.75;;;;;;;;;;5083700;28;20040;-69
2023/01/03 03:30:42;;;;;;;32.60;20.42;;;;;;;;;;5052194;28;20052;-68
2023/01/03 03:33:10;;;;;;;31.15;19.48;;;;;;;;;;5089070;28;20051;-68
2023/01/03 03:35:45;;;;;;;34.10;19.83;;;;;;;;;;5086032;27;20048;-68
2023/01/03 03:38:13;;;;;;;29.83;18.67;;;;;;;;;;5088178;28;20051;-68
2023/01/03 03:46:23;;;;;;;32.45;20.23;;;;;;;;;;5092354;28;20063;-68
2023/01/03 03:51:54;;;;;;;35.20;18.85;;;;;;;;;;5087975;28;20044;-68
2023/01/03 03:54:22;;;;;;;28.67;18.40;;;;;;;;;;5085846;28;20476;-68
2023/01/03 03:56:50;;;;;;;28.07;17.80;;;;;;;;;;5089259;28;20048;-69
2023/01/03 03:59:19;;;;;;;25.55;17.38;;;;;;;;;;5083545;28;20097;-68
2023/01/03 04:01:45;;;;;;;;;;;;;;;;;;5097046;27;20039;-68
2023/01/03 04:04:19;;;;;;;22.95;16.02;;;;;;;;;;5086953;28;19977;-67
2023/01/03 04:06:47;;;;;;;24.83;16.38;;;;;;;;;;5083465;28;20083;-68
2023/01/03 04:09:14;;;;;;;25.02;16.17;;;;;;;;;;5095187;28;20073;-68
2023/01/03 04:11:40;;;;;;;24.70;16.85;;;;;;;;;;5082996;28;20549;-68
2023/01/03 04:14:06;;;;;;;27.15;15.57;;;;;;;;;;5091487;28;20455;-68
2023/01/03 04:16:33;;;;;;;25.45;15.70;;;;;;;;;;5084079;28;20097;-68
2023/01/03 04:18:59;;;;;;;27.45;16.10;;;;;;;;;;5086420;28;20047;-68
2023/01/03 04:21:25;;;;;;;20.70;13.07;;;;;;;;;;5083004;28;20463;-69
2023/01/03 04:23:52;;;;;;;21.98;13.65;;;;;;;;;;5082370;28;20051;-68
2023/01/03 04:26:18;;;;;;;33.00;16.15;;;;;;;;;;5091352;28;20070;-69
2023/01/03 04:28:44;;;;;;;21.73;13.82;;;;;;;;;;5085569;28;20046;-68
2023/01/03 04:31:11;;;;;;;21.55;13.95;;;;;;;;;;5091449;28;20492;-68
2023/01/03 04:33:37;;;;;;;24.20;13.43;;;;;;;;;;5078937;28;20733;-68
2023/01/03 04:36:04;;;;;;;18.02;13.07;;;;;;;;;;5090253;28;20055;-68
2023/01/03 04:38:30;;;;;;;21.00;13.95;;;;;;;;;;5090115;28;20039;-68
2023/01/03 04:41:02;;;;;;;21.33;13.13;;;;;;;;;;5083309;28;20048;-68
2023/01/03 04:46:14;;;;;;;22.55;13.05;;;;;;;;;;5082778;28;20059;-68
2023/01/03 04:48:40;;;;;;;21.58;13.40;;;;;;;;;;5086832;28;20113;-68
2023/01/03 04:51:06;;;;;;;20.88;12.15;;;;;;;;;;5082640;28;20488;-68
2023/01/03 04:53:33;;;;;;;21.38;13.45;;;;;;;;;;5086917;28;20121;-69
2023/01/03 04:55:59;;;;;;;21.67;13.20;;;;;;;;;;5086960;28;20050;-68
2023/01/03 04:58:25;;;;;;;25.52;13.45;;;;;;;;;;5089092;28;20044;-68
2023/01/03 05:00:57;;;;;;;23.27;13.48;;;;;;;;;;5095297;28;20044;-68
2023/01/03 05:03:23;;;;;;;19.27;12.70;;;;;;;;;;5081397;28;20047;-68
2023/01/03 05:05:56;;;;;;;19.38;12.38;;;;;;;;;;5094987;28;20070;-68
2023/01/03 05:08:23;;;;;;;19.30;12.00;;;;;;;;;;5090242;28;20051;-68
2023/01/03 05:10:50;;;;;;;17.80;12.23;;;;;;;;;;5091819;28;20048;-68
2023/01/03 05:13:16;;;;;;;20.80;12.30;;;;;;;;;;5091745;28;20052;-68
2023/01/03 05:15:42;;;;;;;18.98;12.00;;;;;;;;;;5085476;28;20078;-68
2023/01/03 05:18:09;;;;;;;22.05;12.60;;;;;;;;;;5093541;28;20043;-68
2023/01/03 05:26:10;;;;;;;17.33;12.07;;;;;;;;;;5085240;28;20055;-68
2023/01/03 05:28:36;;;;;;;18.30;12.10;;;;;;;;;;5087324;28;20466;-68
2023/01/03 05:31:03;;;;;;;23.27;12.52;;;;;;;;;;5090679;28;20044;-68
2023/01/03 05:33:29;;;;;;;19.45;11.73;;;;;;;;;;5091072;28;20044;-68
2023/01/03 05:35:56;;;;;;;18.20;11.68;;;;;;;;;;5092170;28;20040;-68
2023/01/03 05:38:22;;;;;;;18.30;11.60;;;;;;;;;;5090536;28;20040;-68
2023/01/03 05:40:49;;;;;;;19.70;11.38;;;;;;;;;;5103275;28;20142;-68
2023/01/03 05:43:15;;;;;;;20.80;12.13;;;;;;;;;;5088787;28;20051;-68
2023/01/03 05:45:42;;;;;;;17.35;10.18;;;;;;;;;;5095058;28;20194;-68
2023/01/03 05:48:08;;;;;;;19.90;10.38;;;;;;;;;;5103186;27;20051;-68
2023/01/03 05:50:34;;;;;;;18.85;10.95;;;;;;;;;;5093889;28;20466;-68
2023/01/03 05:53:02;;;;;;;20.63;11.45;;;;;;;;;;5103096;28;20439;-68
2023/01/03 05:55:28;;;;;;;17.57;10.17;;;;;;;;;;5086970;28;20089;-68
2023/01/03 05:57:55;;;;;;;14.48;9.57;;;;;;;;;;5093144;28;20044;-68
2023/01/03 06:00:21;;;;;;;21.55;10.80;;;;;;;;;;5091839;28;20048;-68
2023/01/03 06:02:47;;;;;;;15.75;8.90;;;;;;;;;;5098949;28;20055;-68
2023/01/03 06:05:14;;;;;;;18.08;10.40;;;;;;;;;;5090506;28;20042;-68
2023/01/03 06:07:40;;;;;;;15.32;9.88;;;;;;;;;;5093565;28;20051;-68
2023/01/03 06:10:07;;;;;;;16.58;10.35;;;;;;;;;;5094172;28;20059;-68
2023/01/03 06:12:33;;;;;;;16.33;10.18;;;;;;;;;;5086401;28;20048;-68
2023/01/03 06:14:59;;;;;;;14.20;9.60;;;;;;;;;;5090989;28;20507;-68
2023/01/03 06:20:10;;;;;;;18.15;9.52;;;;;;;;;;5090688;27;20044;-69
2023/01/03 06:22:37;;;;;;;15.30;9.30;;;;;;;;;;5086160;28;20507;-68
2023/01/03 06:25:03;;;;;;;18.48;9.60;;;;;;;;;;5085459;28;20483;-68
2023/01/03 06:27:30;;;;;;;19.27;9.48;;;;;;;;;;5094208;28;20623;-68
2023/01/03 06:29:56;;;;;;;14.50;9.18;;;;;;;;;;5089708;28;20549;-68
2023/01/03 06:32:22;;;;;;;14.93;8.60;;;;;;;;;;5095603;28;20387;-68
2023/01/03 06:34:49;;;;;;;17.90;10.43;;;;;;;;;;5089524;28;20054;-68
2023/01/03 06:37:15;;;;;;;18.17;9.48;;;;;;;;;;5078951;28;20075;-68
2023/01/03 06:39:41;;;;;;;16.63;9.32;;;;;;;;;;5094184;28;20056;-68
2023/01/03 06:53:16;;;;;;;16.50;9.85;;;;;;;;;;5061255;28;20056;-68
2023/01/03 06:55:44;;;;;;;16.42;10.35;;;;;;;;;;5089357;28;20052;-68
2023/01/03 06:58:14;;;;;;;20.75;10.05;;;;;;;;;;5090183;28;20048;-68
2023/01/03 07:00:42;;;;;;;18.75;10.15;;;;;;;;;;5087775;28;20051;-68
2023/01/03 07:03:08;;;;;;;17.27;10.57;;;;;;;;;;5094732;28;20052;-68
2023/01/03 07:05:37;;;;;;;17.38;10.90;;;;;;;;;;5078263;28;20059;-68
2023/01/03 07:08:03;;;;;;;19.10;10.82;;;;;;;;;;5095308;28;20043;-68
2023/01/03 07:10:29;;;;;;;21.23;11.10;;;;;;;;;;5091118;28;20047;-68
2023/01/03 07:15:43;;;;;;;13.55;9.13;;;;;;;;;;5088036;28;20063;-67
2023/01/03 07:18:10;;;;;;;17.83;10.23;;;;;;;;;;5083525;28;20048;-68
2023/01/03 07:20:41;;;;;;;16.35;10.55;;;;;;;;;;5090540;28;20040;-69
2023/01/03 07:23:08;;;;;;;16.95;10.98;;;;;;;;;;5089844;28;20043;-68
2023/01/03 07:25:39;;;;;;;17.42;10.45;;;;;;;;;;5100311;28;20522;-69
2023/01/03 07:28:07;;;;;;;15.63;10.43;;;;;;;;;;5094443;28;20111;-68
2023/01/03 07:30:37;;;;;;;17.83;10.35;;;;;;;;;;5093096;28;20088;-69
2023/01/03 07:33:03;;;;;;;17.58;9.85;;;;;;;;;;5086325;28;20051;-68
2023/01/03 07:35:31;;;;;;;17.02;10.13;;;;;;;;;;5080185;28;20126;-68
2023/01/03 07:37:57;;;;;;;14.55;9.40;;;;;;;;;;5102794;28;20775;-68
2023/01/03 07:40:23;;;;;;;16.45;10.23;;;;;;;;;;5096211;28;20040;-68
2023/01/03 07:45:37;;;;;;;18.25;10.05;;;;;;;;;;5086918;27;20043;-69
2023/01/03 07:48:04;;;;;;;23.25;11.40;;;;;;;;;;5090231;28;20035;-68
2023/01/03 07:50:30;;;;;;;21.98;11.75;;;;;;;;;;5088234;28;20139;-67
2023/01/03 07:52:56;;;;;;;15.75;9.90;;;;;;;;;;5088308;28;20093;-68
2023/01/03 07:55:22;;;;;;;16.58;9.82;;;;;;;;;;5096983;28;20056;-68
2023/01/03 07:57:49;;;;;;;18.33;9.93;;;;;;;;;;5095005;28;20044;-68
2023/01/03 08:00:15;;;;;;;13.95;9.27;;;;;;;;;;5099856;28;20108;-68
2023/01/03 08:02:41;;;;;;;15.82;9.07;;;;;;;;;;5086831;28;20051;-68
2023/01/03 08:05:08;;;;;;;16.38;8.95;;;;;;;;;;5092392;28;20070;-68
2023/01/03 08:07:35;;;;;;;13.65;9.68;;;;;;;;;;5092018;28;20093;-68
2023/01/03 08:15:31;;;;;;;14.98;8.25;;;;;;;;;;5084811;28;20570;-68
2023/01/03 08:17:57;;;;;;;15.38;8.80;;;;;;;;;;5087551;28;20488;-68
2023/01/03 08:20:23;;;;;;;15.80;9.10;;;;;;;;;;5087702;28;20079;-68
2023/01/03 08:22:50;;;;;;;16.00;9.07;;;;;;;;;;5102372;28;20537;-68
2023/01/03 08:25:16;;;;;;;15.65;9.27;;;;;;;;;;5082909;28;20100;-67
2023/01/03 08:27:42;;;;;;;16.40;9.50;;;;;;;;;;5057068;28;20051;-67
2023/01/03 08:30:15;;;;;;;19.58;10.43;;;;;;;;;;5085701;27;20050;-68
2023/01/03 08:32:42;;;;;;;17.77;8.85;;;;;;;;;;5090266;28;20067;-68
2023/01/03 08:35:10;;;;;;;14.57;9.82;;;;;;;;;;5077732;28;20549;-68
2023/01/03 08:37:36;;;;;;;15.93;10.63;;;;;;;;;;5098780;28;20043;-69
2023/01/03 08:40:03;;;;;;;16.88;9.20;;;;;;;;;;5103064;28;20050;-69
2023/01/03 08:42:31;;;;;;;16.95;9.73;;;;;;;;;;5098030;28;20047;-69
2023/01/03 08:44:59;;;;;;;16.05;9.10;;;;;;;;;;5089214;28;20096;-68
2023/01/03 08:47:27;;;;;;;12.98;9.07;;;;;;;;;;5090150;28;20048;-69
2023/01/03 08:49:54;;;;;;;18.13;9.43;;;;;;;;;;5088992;28;20110;-68
2023/01/03 08:52:20;;;;;;;14.10;8.23;;;;;;;;;;5096029;28;20052;-69
2023/01/03 08:54:46;;;;;;;14.52;9.07;;;;;;;;;;5082354;28;20048;-68
2023/01/03 08:57:13;;;;;;;13.23;8.40;;;;;;;;;;5089356;28;20065;-69
2023/01/03 08:59:39;;;;;;;15.45;8.30;;;;;;;;;;5083614;28;20044;-68
2023/01/03 09:02:05;;;;;;;12.07;8.32;;;;;;;;;;5085954;28;20413;-68
2023/01/03 09:04:32;;;;;;;11.07;7.72;;;;;;;;;;5101326;28;20046;-68
2023/01/03 09:06:58;;;;;;;13.77;7.65;;;;;;;;;;5082373;28;20500;-68
2023/01/03 09:09:25;;;;;;;12.35;8.18;;;;;;;;;;5090448;28;20048;-69
2023/01/03 09:11:51;;;;;;;16.65;8.20;;;;;;;;;;5085920;28;20058;-68
2023/01/03 09:14:18;;;;;;;14.55;8.82;;;;;;;;;;5082811;28;20051;-69
2023/01/03 09:16:44;;;;;;;13.27;8.32;;;;;;;;;;5088010;28;20040;-67
2023/01/03 09:19:14;;;;;;;17.85;9.55;;;;;;;;;;5089173;28;20361;-68
2023/01/03 09:21:41;;;;;;;13.93;8.10;;;;;;;;;;5101395;28;20048;-68
2023/01/03 09:24:07;;;;;;;14.38;8.52;;;;;;;;;;5087792;28;20052;-69
2023/01/03 09:26:33;;;;;;;23.20;11.27;;;;;;;;;;5091348;28;20048;-69
2023/01/03 09:29:00;;;;;;;13.07;7.82;;;;;;;;;;5091968;28;20097;-68
2023/01/03 09:31:28;;;;;;;16.02;8.73;;;;;;;;;;5083734;28;20087;-67
2023/01/03 09:33:55;;;;;;;;;;;;;;;;;;5076433;28;20055;-68
2023/01/03 09:36:21;;;;;;;17.23;8.15;;;;;;;;;;5077686;28;19924;-67
2023/01/03 09:38:47;;;;;;;12.93;8.90;;;;;;;;;;5089260;28;20048;-68
2023/01/03 09:41:20;;;;;;;12.43;8.10;;;;;;;;;;5089331;28;20511;-68
2023/01/03 09:43:47;;;;;;;13.77;7.75;;;;;;;;;;5099068;28;20051;-68
2023/01/03 09:46:15;;;;;;;17.65;8.38;;;;;;;;;;5092182;28;20055;-69
2023/01/03 09:48:42;;;;;;;15.00;8.55;;;;;;;;;;5087641;28;20062;-68
2023/01/03 10:05:25;;;;;;;17.55;9.77;;;;;;;;;;5087059;28;20035;-68
2023/01/03 10:07:51;;;;;;;16.85;9.23;;;;;;;;;;5092692;28;20824;-68
2023/01/03 10:10:29;;;;;;;20.98;9.35;;;;;;;;;;5094719;27;20060;-68
2023/01/03 10:13:04;;;;;;;17.20;9.65;;;;;;;;;;5093364;28;20047;-69
2023/01/03 10:15:55;;;;;;;18.10;10.05;;;;;;;;;;5092426;28;20093;-68
2023/01/03 10:18:32;;;;;;;18.17;10.27;;;;;;;;;;5091273;28;20047;-69
2023/01/03 10:21:01;;;;;;;17.70;9.23;;;;;;;;;;5091855;28;20051;-69
2023/01/03 10:23:29;;;;;;;20.58;9.27;;;;;;;;;;5089785;28;20055;-68
2023/01/03 10:25:55;;;;;;;15.57;9.83;;;;;;;;;;5093538;28;20044;-69
2023/01/03 10:28:24;;;;;;;16.92;8.80;;;;;;;;;;5084172;28;20674;-67
2023/01/03 10:30:59;;;;;;;19.35;10.02;;;;;;;;;;5087176;28;20598;-68
2023/01/03 10:33:36;;;;;;;17.60;9.13;;;;;;;;;;5086982;28;20472;-68
2023/01/03 10:36:03;;;;;;;19.65;9.52;;;;;;;;;;5100711;27;20114;-68
2023/01/03 10:38:29;;;;;;;16.15;8.88;;;;;;;;;;5108584;28;20047;-67
2023/01/03 10:40:58;;;;;;;16.60;9.17;;;;;;;;;;5087656;28;20047;-68
2023/01/03 10:43:36;;;;;;;17.48;9.60;;;;;;;;;;5091627;28;20480;-68
2023/01/03 10:46:04;;;;;;;15.32;7.75;;;;;;;;;;5084508;28;20055;-68
2023/01/03 10:48:40;;;;;;;17.25;8.77;;;;;;;;;;5091044;28;20135;-68
2023/01/03 10:51:29;;;;;;;16.00;9.90;;;;;;;;;;5087807;28;20063;-67
2023/01/03 10:53:57;;;;;;;17.20;8.30;;;;;;;;;;5097257;28;20048;-67
2023/01/03 10:56:24;;;;;;;16.95;8.68;;;;;;;;;;5063212;28;20151;-67
2023/01/03 10:59:09;;;;;;;17.42;9.30;;;;;;;;;;5087274;28;20364;-68
2023/01/03 11:01:35;;;;;;;16.35;8.65;;;;;;;;;;5098671;28;20047;-68
2023/01/03 11:04:06;;;;;;;16.55;9.25;;;;;;;;;;5103135;28;20047;-68
2023/01/03 11:06:32;;;;;;;13.80;8.30;;;;;;;;;;5089738;28;20425;-69
2023/01/03 11:09:04;;;;;;;15.45;8.95;;;;;;;;;;5071180;28;20044;-68
2023/01/03 11:11:32;;;;;;;16.42;8.15;;;;;;;;;;5089206;28;20407;-69
2023/01/03 11:14:13;;;;;;;14.52;6.90;;;;;;;;;;5079938;28;20059;-69
2023/01/03 11:16:39;;;;;;;15.65;8.60;;;;;;;;;;5075610;28;20047;-69
2023/01/03 11:19:06;;;;;;;14.80;8.07;;;;;;;;;;5088001;28;20524;-69
2023/01/03 11:21:32;;;;;;;14.23;7.35;;;;;;;;;;5074090;28;20055;-69
2023/01/03 11:24:01;;;;;;;17.55;8.02;;;;;;;;;;5096011;28;20401;-69
2023/01/03 11:26:28;;;;;;;13.93;8.25;;;;;;;;;;5082501;28;20043;-69
2023/01/03 11:29:03;;;;;;;14.13;7.82;;;;;;;;;;5086747;28;20458;-67
2023/01/03 11:31:48;;;;;;;13.27;7.30;;;;;;;;;;5085503;28;20036;-69
2023/01/03 11:34:21;;;;;;;11.65;7.32;;;;;;;;;;5091738;28;20127;-69
2023/01/03 11:36:51;;;;;;;12.50;6.35;;;;;;;;;;5092987;28;20058;-69
2023/01/03 11:39:21;;;;;;;15.90;7.00;;;;;;;;;;5092005;28;20052;-68
2023/01/03 11:42:11;;;;;;;11.45;6.78;;;;;;;;;;5084517;28;20289;-68
2023/01/03 11:44:40;;;;;;;12.68;6.40;;;;;;;;;;5096052;28;20051;-68
2023/01/03 11:47:16;;;;;;;12.98;6.45;;;;;;;;;;5090134;28;20101;-69
2023/01/03 11:50:02;;;;;;;15.10;6.22;;;;;;;;;;5093792;28;20064;-69
2023/01/03 11:52:46;;;;;;;12.93;6.97;;;;;;;;;;5099145;28;20051;-68
2023/01/03 11:55:18;;;;;;;13.50;6.25;;;;;;;;;;5082551;28;20047;-68
2023/01/03 11:58:01;;;;;;;11.38;6.47;;;;;;;;;;5097282;28;20044;-69
2023/01/03 12:00:36;;;;;;;13.75;6.63;;;;;;;;;;5093699;28;20047;-69
2023/01/03 12:03:05;;;;;;;11.43;6.40;;;;;;;;;;5091969;28;20048;-69
2023/01/03 12:05:35;;;;;;;13.38;6.15;;;;;;;;;;5083536;28;20054;-68
2023/01/03 12:08:12;;;;;;;10.68;6.18;;;;;;;;;;5093873;28;20715;-67
2023/01/03 12:10:45;;;;;;;14.67;6.93;;;;;;;;;;5094212;28;20484;-68
2023/01/03 12:13:24;;;;;;;12.73;5.97;;;;;;;;;;5083454;28;20043;-69
2023/01/03 12:16:03;;;;;;;11.23;5.88;;;;;;;;;;5097036;28;20048;-69
2023/01/03 12:18:35;;;;;;;11.43;6.30;;;;;;;;;;5094053;28;20039;-68
2023/01/03 12:21:06;;;;;;;9.68;5.28;;;;;;;;;;5080288;28;20343;-69
2023/01/03 12:23:38;;;;;;;10.23;5.90;;;;;;;;;;5085280;28;20039;-69
2023/01/03 12:26:07;;;;;;;12.75;5.57;;;;;;;;;;5098359;27;20114;-68
2023/01/03 12:28:48;;;;;;;10.90;5.65;;;;;;;;;;5098884;28;20048;-68
2023/01/03 12:31:22;;;;;;;12.65;6.43;;;;;;;;;;5088924;28;20488;-68
2023/01/03 12:34:08;;;;;;;8.98;5.93;;;;;;;;;;5083057;28;20074;-68
2023/01/03 12:36:35;;;;;;;;;;;;;;;;;;5095704;28;20058;-68
2023/01/03 12:39:20;;;;;;;9.98;5.75;;;;;;;;;;5087845;28;19920;-68
2023/01/03 12:41:55;;;;;;;11.30;6.30;;;;;;;;;;5087349;28;20044;-68
2023/01/03 12:44:37;;;;;;;11.40;6.30;;;;;;;;;;5093843;28;20052;-68
2023/01/03 12:47:04;;;;;;;13.43;6.22;;;;;;;;;;5082998;28;20051;-68
2023/01/03 12:49:33;;;;;;;13.98;6.45;;;;;;;;;;5099600;28;20079;-68
2023/01/03 12:51:59;;;;;;;;;;;;;;;;;;5088650;28;20036;-67
2023/01/03 12:54:32;;;;;;;12.00;5.75;;;;;;;;;;5096154;28;20398;-68
2023/01/03 12:57:05;;;;;;;12.55;6.22;;;;;;;;;;5085782;28;20466;-70
2023/01/03 12:59:38;;;;;;;9.55;6.13;;;;;;;;;;5090528;28;20048;-69
2023/01/03 13:02:15;;;;;;;10.55;6.03;;;;;;;;;;5095320;28;20681;-68
2023/01/03 13:04:42;;;;;;;7.82;5.22;;;;;;;;;;5083430;28;20468;-69
2023/01/03 13:07:16;;;;;;;11.30;6.45;;;;;;;;;;5086899;28;20492;-68
2023/01/03 13:09:45;;;;;;;10.43;5.90;;;;;;;;;;5099398;27;20044;-69
2023/01/03 13:12:13;;;;;;;10.20;5.88;;;;;;;;;;5105815;28;20040;-68
2023/01/03 13:14:55;;;;;;;10.52;6.25;;;;;;;;;;5090997;28;20051;-68
2023/01/03 13:17:25;;;;;;;10.50;6.38;;;;;;;;;;5100387;28;20116;-69
2023/01/03 13:19:56;;;;;;;10.73;5.45;;;;;;;;;;5099773;28;20132;-68
2023/01/03 13:22:22;;;;;;;12.00;6.13;;;;;;;;;;5107364;28;20052;-68
2023/01/03 13:24:50;;;;;;;8.02;5.57;;;;;;;;;;5106619;28;20077;-68
2023/01/03 13:27:19;;;;;;;12.23;5.32;;;;;;;;;;5090241;28;20044;-69
2023/01/03 13:29:48;;;;;;;11.43;5.82;;;;;;;;;;5106906;28;20070;-69
2023/01/03 13:32:16;;;;;;;9.45;4.50;;;;;;;;;;5105586;28;20039;-68
2023/01/03 13:34:43;;;;;;;7.10;3.78;;;;;;;;;;5099377;28;20103;-69
2023/01/03 13:37:15;;;;;;;11.02;3.60;;;;;;;;;;5111921;28;20062;-68
2023/01/03 13:39:50;;;;;;;6.65;3.33;;;;;;;;;;5100834;28;20058;-69
2023/01/03 13:42:34;;;;;;;5.47;2.83;;;;;;;;;;5104550;28;20077;-68
2023/01/03 13:45:09;;;;;;;9.18;3.38;;;;;;;;;;5099389;28;20044;-68
2023/01/03 13:47:39;;;;;;;6.20;3.15;;;;;;;;;;5110809;28;20075;-68
2023/01/03 13:50:26;;;;;;;7.70;2.95;;;;;;;;;;5097046;28;20052;-69
2023/01/03 13:53:11;;;;;;;5.50;2.90;;;;;;;;;;5106193;28;20052;-67
2023/01/03 13:55:47;;;;;;;8.85;3.15;;;;;;;;;;5106088;28;20469;-68
2023/01/03 13:58:22;;;;;;;7.65;2.80;;;;;;;;;;5108633;28;20082;-68
2023/01/03 14:00:59;;;;;;;6.60;3.40;;;;;;;;;;5108076;28;20083;-67
2023/01/03 14:03:50;;;;;;;6.53;2.97;;;;;;;;;;5111529;28;20040;-67
2023/01/03 14:06:16;;;;;;;6.78;3.05;;;;;;;;;;5102993;28;20103;-68
2023/01/03 14:09:00;;;;;;;5.85;3.42;;;;;;;;;;5123329;28;20267;-68
2023/01/03 14:11:45;;;;;;;8.07;2.70;;;;;;;;;;5113632;28;20048;-68
2023/01/03 14:14:13;;;;;;;5.53;2.67;;;;;;;;;;5096686;28;20062;-68
2023/01/03 14:16:44;;;;;;;8.32;2.83;;;;;;;;;;5104522;28;20052;-68
2023/01/03 14:19:10;;;;;;;9.07;3.53;;;;;;;;;;5102923;28;20078;-68
2023/01/03 14:21:39;;;;;;;6.70;3.17;;;;;;;;;;5116444;27;20048;-68
2023/01/03 14:24:05;;;;;;;;;;;;;;;;;;5100007;28;20052;-68
2023/01/03 14:26:31;;;;;;;7.90;3.60;;;;;;;;;;5115785;28;20311;-68
2023/01/03 14:28:59;;;;;;;10.02;4.10;;;;;;;;;;5108484;28;20478;-68
2023/01/03 14:31:26;;;;;;;8.68;4.40;;;;;;;;;;5110484;27;20043;-68
2023/01/03 14:33:59;;;;;;;9.95;4.65;;;;;;;;;;5115767;28;20071;-68
2023/01/03 14:36:26;;;;;;;9.80;4.80;;;;;;;;;;5103120;28;20514;-68
2023/01/03 14:38:53;;;;;;;11.02;4.95;;;;;;;;;;5112925;28;20079;-68
2023/01/03 14:41:27;;;;;;;8.10;5.25;;;;;;;;;;5103955;28;20081;-68
2023/01/03 14:44:01;;;;;;;12.38;5.57;;;;;;;;;;5104171;28;20048;-64
2023/01/03 14:46:28;;;;;;;9.75;4.70;;;;;;;;;;5114670;28;20036;-67
2023/01/03 14:48:56;;;;;;;8.18;5.25;;;;;;;;;;5112608;28;20102;-65
2023/01/03 14:51:30;;;;;;;9.68;4.82;;;;;;;;;;5104795;27;20047;-65
2023/01/03 14:53:58;;;;;;;7.38;4.63;;;;;;;;;;5096525;27;20573;-68
2023/01/03 14:56:27;;;;;;;7.25;4.05;;;;;;;;;;5083835;28;20492;-65
2023/01/03 14:58:54;;;;;;;7.72;4.55;;;;;;;;;;5078918;28;20044;-65
2023/01/03 15:01:21;;;;;;;11.30;4.20;;;;;;;;;;5090805;28;20420;-65
2023/01/03 15:03:48;;;;;;;9.27;4.28;;;;;;;;;;5096401;28;20052;-65
2023/01/03 15:06:25;;;;;;;10.25;4.40;;;;;;;;;;5098280;28;20103;-65
2023/01/03 15:08:53;;;;;;;11.20;4.30;;;;;;;;;;5101513;28;20061;-65
2023/01/03 15:11:22;;;;;;;7.28;4.00;;;;;;;;;;5098604;28;20122;-64
2023/01/03 15:13:49;;;;;;;9.15;3.90;;;;;;;;;;5098367;28;20051;-63
2023/01/03 15:16:18;;;;;;;10.43;3.55;;;;;;;;;;5087134;28;20123;-64
2023/01/03 15:18:45;;;;;;;8.32;3.42;;;;;;;;;;5096779;28;20434;-64
2023/01/03 15:21:15;;;;;;;9.18;3.92;;;;;;;;;;5092666;28;20300;-66
2023/01/03 15:23:45;;;;;;;6.80;3.22;;;;;;;;;;5093185;28;20351;-64
2023/01/03 15:26:23;;;;;;;6.57;3.30;;;;;;;;;;5094856;28;20135;-64
2023/01/03 15:28:52;;;;;;;8.60;3.30;;;;;;;;;;5092302;27;20058;-64
2023/01/03 15:31:31;;;;;;;8.55;2.80;;;;;;;;;;5107468;28;20051;-65
2023/01/03 15:33:57;;;;;;;;;;;;;;;;;;5090155;28;20044;-63
2023/01/03 15:36:25;;;;;;;6.47;2.65;;;;;;;;;;5087558;28;19924;-64
2023/01/03 15:38:51;;;;;;;9.07;3.20;;;;;;;;;;5087885;28;20067;-64
2023/01/03 15:43:18;;;;;;;6.32;3.05;;;;;;;;;;5100690;28;20794;-64
2023/01/03 15:44:08;;;;;;;11.70;3.50;;;;;;;;;;5093221;28;20096;-63
2023/01/03 15:46:35;;;;;;;6.75;3.10;;;;;;;;;;5089890;28;20499;-63
2023/01/03 15:49:02;;;;;;;7.78;3.53;;;;;;;;;;5104214;28;20532;-63
2023/01/03 15:51:28;;;;;;;7.75;3.60;;;;;;;;;;5083428;28;20821;-63
2023/01/03 15:53:54;;;;;;;7.57;3.50;;;;;;;;;;5094723;28;20446;-63
2023/01/03 15:56:23;;;;;;;6.38;3.08;;;;;;;;;;5092570;28;20119;-63